sensor_id;sensor_type;location;lat;lon;timestamp;temperature;humidity
10089;DHT22;51898;49.864;8.550;2023-04-03T00:02:09;4.20;74.50
10089;DHT22;51898;49.864;8.550;2023-04-03T00:05:11;4.20;74.20
10089;DHT22;51898;49.864;8.550;2023-04-03T00:08:13;4.10;74.20
10089;DHT22;51898;49.864;8.550;2023-04-03T00:11:15;4.20;74.30
10089;DHT22;51898;49.864;8.550;2023-04-03T00:14:16;4.10;74.20
10089;DHT22;51898;49.864;8.550;2023-04-03T00:17:18;4.10;74.50
10089;DHT22;51898;49.864;8.550;2023-04-03T00:20:19;4.10;74.40
10089;DHT22;51898;49.864;8.550;2023-04-03T00:23:21;4.20;74.60
10089;DHT22;51898;49.864;8.550;2023-04-03T00:26:25;4.10;74.70
10089;DHT22;51898;49.864;8.550;2023-04-03T00:29:26;4.20;74.60
10089;DHT22;51898;49.864;8.550;2023-04-03T00:32:28;4.10;74.40
10089;DHT22;51898;49.864;8.550;2023-04-03T00:35:30;4.00;74.70
10089;DHT22;51898;49.864;8.550;2023-04-03T00:38:31;4.00;74.60
10089;DHT22;51898;49.864;8.550;2023-04-03T00:41:33;4.00;74.90
10089;DHT22;51898;49.864;8.550;2023-04-03T00:47:38;4.00;75.20
10089;DHT22;51898;49.864;8.550;2023-04-03T00:50:42;4.00;75.30
10089;DHT22;51898;49.864;8.550;2023-04-03T00:53:57;4.00;75.40
10089;DHT22;51898;49.864;8.550;2023-04-03T00:57:00;3.90;75.40
10089;DHT22;51898;49.864;8.550;2023-04-03T01:00:07;3.90;75.50
10089;DHT22;51898;49.864;8.550;2023-04-03T01:03:10;3.90;75.40
10089;DHT22;51898;49.864;8.550;2023-04-03T01:06:14;3.90;75.60
10089;DHT22;51898;49.864;8.550;2023-04-03T01:09:17;3.90;75.80
10089;DHT22;51898;49.864;8.550;2023-04-03T01:12:22;3.90;75.90
10089;DHT22;51898;49.864;8.550;2023-04-03T01:15:26;3.90;75.80
10089;DHT22;51898;49.864;8.550;2023-04-03T01:18:29;3.90;76.10
10089;DHT22;51898;49.864;8.550;2023-04-03T01:24:45;3.90;76.10
10089;DHT22;51898;49.864;8.550;2023-04-03T01:27:49;3.90;76.00
10089;DHT22;51898;49.864;8.550;2023-04-03T01:34:12;3.90;76.20
10089;DHT22;51898;49.864;8.550;2023-04-03T01:37:14;3.80;76.40
10089;DHT22;51898;49.864;8.550;2023-04-03T01:40:16;3.80;76.50
10089;DHT22;51898;49.864;8.550;2023-04-03T01:43:17;3.80;76.80
10089;DHT22;51898;49.864;8.550;2023-04-03T01:46:20;3.80;76.80
10089;DHT22;51898;49.864;8.550;2023-04-03T01:49:22;3.80;76.70
10089;DHT22;51898;49.864;8.550;2023-04-03T01:52:23;3.80;76.80
10089;DHT22;51898;49.864;8.550;2023-04-03T01:55:25;3.80;76.70
10089;DHT22;51898;49.864;8.550;2023-04-03T01:58:27;3.80;76.70
10089;DHT22;51898;49.864;8.550;2023-04-03T02:01:28;3.80;76.70
10089;DHT22;51898;49.864;8.550;2023-04-03T02:04:30;3.80;76.80
10089;DHT22;51898;49.864;8.550;2023-04-03T02:07:32;3.90;76.80
10089;DHT22;51898;49.864;8.550;2023-04-03T02:10:33;3.80;76.90
10089;DHT22;51898;49.864;8.550;2023-04-03T02:13:35;3.80;77.10
10089;DHT22;51898;49.864;8.550;2023-04-03T02:16:37;3.80;77.20
10089;DHT22;51898;49.864;8.550;2023-04-03T02:19:39;3.80;76.90
10089;DHT22;51898;49.864;8.550;2023-04-03T02:22:41;3.80;76.90
10089;DHT22;51898;49.864;8.550;2023-04-03T02:25:42;3.80;77.00
10089;DHT22;51898;49.864;8.550;2023-04-03T02:28:44;3.80;76.90
10089;DHT22;51898;49.864;8.550;2023-04-03T02:31:46;3.80;76.90
10089;DHT22;51898;49.864;8.550;2023-04-03T02:34:47;3.80;76.80
10089;DHT22;51898;49.864;8.550;2023-04-03T02:37:49;3.80;77.00
10089;DHT22;51898;49.864;8.550;2023-04-03T02:40:51;3.80;76.90
10089;DHT22;51898;49.864;8.550;2023-04-03T02:43:53;3.80;77.10
10089;DHT22;51898;49.864;8.550;2023-04-03T02:46:55;3.80;77.10
10089;DHT22;51898;49.864;8.550;2023-04-03T02:49:56;3.70;77.50
10089;DHT22;51898;49.864;8.550;2023-04-03T02:52:58;3.70;77.70
10089;DHT22;51898;49.864;8.550;2023-04-03T02:56:00;3.70;77.80
10089;DHT22;51898;49.864;8.550;2023-04-03T02:59:01;3.70;77.80
10089;DHT22;51898;49.864;8.550;2023-04-03T03:02:03;3.60;78.10
10089;DHT22;51898;49.864;8.550;2023-04-03T03:05:05;3.60;78.20
10089;DHT22;51898;49.864;8.550;2023-04-03T03:08:07;3.60;78.20
10089;DHT22;51898;49.864;8.550;2023-04-03T03:11:09;3.60;78.20
10089;DHT22;51898;49.864;8.550;2023-04-03T03:14:11;3.60;78.20
10089;DHT22;51898;49.864;8.550;2023-04-03T03:17:13;3.50;78.20
10089;DHT22;51898;49.864;8.550;2023-04-03T03:20:15;3.50;78.50
10089;DHT22;51898;49.864;8.550;2023-04-03T03:23:16;3.40;78.60
10089;DHT22;51898;49.864;8.550;2023-04-03T03:26:18;3.50;78.70
10089;DHT22;51898;49.864;8.550;2023-04-03T03:29:20;3.40;78.80
10089;DHT22;51898;49.864;8.550;2023-04-03T03:32:22;3.40;78.90
10089;DHT22;51898;49.864;8.550;2023-04-03T03:35:23;3.30;79.10
10089;DHT22;51898;49.864;8.550;2023-04-03T03:38:25;3.30;79.30
10089;DHT22;51898;49.864;8.550;2023-04-03T03:41:27;3.20;79.40
10089;DHT22;51898;49.864;8.550;2023-04-03T03:44:29;3.20;79.60
10089;DHT22;51898;49.864;8.550;2023-04-03T03:47:30;3.20;79.80
10089;DHT22;51898;49.864;8.550;2023-04-03T03:50:32;3.10;80.20
10089;DHT22;51898;49.864;8.550;2023-04-03T03:53:34;3.20;80.40
10089;DHT22;51898;49.864;8.550;2023-04-03T03:56:36;3.10;80.50
10089;DHT22;51898;49.864;8.550;2023-04-03T03:59:37;3.10;80.70
10089;DHT22;51898;49.864;8.550;2023-04-03T04:02:39;3.10;80.90
10089;DHT22;51898;49.864;8.550;2023-04-03T04:05:41;3.20;81.00
10089;DHT22;51898;49.864;8.550;2023-04-03T04:08:43;3.20;81.00
10089;DHT22;51898;49.864;8.550;2023-04-03T04:11:44;3.20;81.10
10089;DHT22;51898;49.864;8.550;2023-04-03T04:14:46;3.20;81.10
10089;DHT22;51898;49.864;8.550;2023-04-03T04:17:48;3.20;81.40
10089;DHT22;51898;49.864;8.550;2023-04-03T04:20:50;3.20;81.40
10089;DHT22;51898;49.864;8.550;2023-04-03T04:23:52;3.20;81.40
10089;DHT22;51898;49.864;8.550;2023-04-03T04:26:53;3.20;81.50
10089;DHT22;51898;49.864;8.550;2023-04-03T04:29:55;3.30;81.60
10089;DHT22;51898;49.864;8.550;2023-04-03T04:32:59;3.30;81.40
10089;DHT22;51898;49.864;8.550;2023-04-03T04:36:01;3.30;80.90
10089;DHT22;51898;49.864;8.550;2023-04-03T04:39:03;3.40;80.70
10089;DHT22;51898;49.864;8.550;2023-04-03T04:42:05;3.40;80.60
10089;DHT22;51898;49.864;8.550;2023-04-03T04:45:08;3.40;80.60
10089;DHT22;51898;49.864;8.550;2023-04-03T04:48:10;3.40;80.30
10089;DHT22;51898;49.864;8.550;2023-04-03T04:51:12;3.40;80.10
10089;DHT22;51898;49.864;8.550;2023-04-03T04:54:13;3.50;80.20
10089;DHT22;51898;49.864;8.550;2023-04-03T04:57:15;3.40;80.10
10089;DHT22;51898;49.864;8.550;2023-04-03T05:00:17;3.40;80.00
10089;DHT22;51898;49.864;8.550;2023-04-03T05:03:19;3.50;79.40
10089;DHT22;51898;49.864;8.550;2023-04-03T05:06:21;3.40;79.10
10089;DHT22;51898;49.864;8.550;2023-04-03T05:09:22;3.50;78.90
10089;DHT22;51898;49.864;8.550;2023-04-03T05:12:24;3.40;78.70
10089;DHT22;51898;49.864;8.550;2023-04-03T05:15:26;3.40;78.80
10089;DHT22;51898;49.864;8.550;2023-04-03T05:18:28;3.40;78.60
10089;DHT22;51898;49.864;8.550;2023-04-03T05:21:29;3.40;78.30
10089;DHT22;51898;49.864;8.550;2023-04-03T05:24:34;3.40;78.30
10089;DHT22;51898;49.864;8.550;2023-04-03T05:27:35;3.40;77.70
10089;DHT22;51898;49.864;8.550;2023-04-03T05:30:37;3.40;77.80
10089;DHT22;51898;49.864;8.550;2023-04-03T05:33:39;3.30;78.00
10089;DHT22;51898;49.864;8.550;2023-04-03T05:36:40;3.30;77.80
10089;DHT22;51898;49.864;8.550;2023-04-03T05:39:43;3.30;77.70
10089;DHT22;51898;49.864;8.550;2023-04-03T05:42:44;3.30;77.60
10089;DHT22;51898;49.864;8.550;2023-04-03T05:45:47;3.30;77.70
10089;DHT22;51898;49.864;8.550;2023-04-03T05:48:49;3.30;77.50
10089;DHT22;51898;49.864;8.550;2023-04-03T05:51:51;3.30;77.10
10089;DHT22;51898;49.864;8.550;2023-04-03T05:54:53;3.40;76.90
10089;DHT22;51898;49.864;8.550;2023-04-03T05:57:55;3.30;76.90
10089;DHT22;51898;49.864;8.550;2023-04-03T06:00:57;3.30;76.90
10089;DHT22;51898;49.864;8.550;2023-04-03T06:03:58;3.40;76.50
10089;DHT22;51898;49.864;8.550;2023-04-03T06:07:00;3.40;76.50
10089;DHT22;51898;49.864;8.550;2023-04-03T06:10:02;3.40;76.70
10089;DHT22;51898;49.864;8.550;2023-04-03T06:13:04;3.50;76.70
10089;DHT22;51898;49.864;8.550;2023-04-03T06:16:06;3.40;76.10
10089;DHT22;51898;49.864;8.550;2023-04-03T06:19:08;3.50;76.00
10089;DHT22;51898;49.864;8.550;2023-04-03T06:22:10;3.50;75.90
10089;DHT22;51898;49.864;8.550;2023-04-03T06:25:13;3.50;75.90
10089;DHT22;51898;49.864;8.550;2023-04-03T06:28:15;3.60;76.00
10089;DHT22;51898;49.864;8.550;2023-04-03T06:31:16;3.70;75.60
10089;DHT22;51898;49.864;8.550;2023-04-03T06:34:18;3.70;75.40
10089;DHT22;51898;49.864;8.550;2023-04-03T06:37:22;3.70;74.80
10089;DHT22;51898;49.864;8.550;2023-04-03T06:40:25;3.70;74.70
10089;DHT22;51898;49.864;8.550;2023-04-03T06:43:27;3.70;74.40
10089;DHT22;51898;49.864;8.550;2023-04-03T06:46:29;3.80;74.20
10089;DHT22;51898;49.864;8.550;2023-04-03T06:49:31;3.70;73.40
10089;DHT22;51898;49.864;8.550;2023-04-03T06:52:33;3.80;73.30
10089;DHT22;51898;49.864;8.550;2023-04-03T06:55:35;3.90;73.80
10089;DHT22;51898;49.864;8.550;2023-04-03T06:58:37;3.90;72.50
10089;DHT22;51898;49.864;8.550;2023-04-03T07:01:39;4.00;71.90
10089;DHT22;51898;49.864;8.550;2023-04-03T07:04:42;4.10;70.90
10089;DHT22;51898;49.864;8.550;2023-04-03T07:07:43;4.20;70.90
10089;DHT22;51898;49.864;8.550;2023-04-03T07:10:45;4.30;70.80
10089;DHT22;51898;49.864;8.550;2023-04-03T07:13:47;4.50;69.70
10089;DHT22;51898;49.864;8.550;2023-04-03T07:16:48;4.60;69.30
10089;DHT22;51898;49.864;8.550;2023-04-03T07:19:50;4.80;68.50
10089;DHT22;51898;49.864;8.550;2023-04-03T07:22:53;4.60;67.40
10089;DHT22;51898;49.864;8.550;2023-04-03T07:25:55;4.70;67.70
10089;DHT22;51898;49.864;8.550;2023-04-03T07:28:57;4.80;66.30
10089;DHT22;51898;49.864;8.550;2023-04-03T07:31:59;4.80;66.30
10089;DHT22;51898;49.864;8.550;2023-04-03T07:35:01;5.00;64.90
10089;DHT22;51898;49.864;8.550;2023-04-03T07:38:04;4.90;64.20
10089;DHT22;51898;49.864;8.550;2023-04-03T07:41:06;4.80;64.30
10089;DHT22;51898;49.864;8.550;2023-04-03T07:44:08;5.00;62.80
10089;DHT22;51898;49.864;8.550;2023-04-03T07:47:11;5.20;62.40
10089;DHT22;51898;49.864;8.550;2023-04-03T07:50:12;5.10;61.90
10089;DHT22;51898;49.864;8.550;2023-04-03T07:53:15;5.20;62.50
10089;DHT22;51898;49.864;8.550;2023-04-03T07:56:16;5.30;62.60
10089;DHT22;51898;49.864;8.550;2023-04-03T07:59:18;5.30;62.00
10089;DHT22;51898;49.864;8.550;2023-04-03T08:02:20;5.50;61.20
10089;DHT22;51898;49.864;8.550;2023-04-03T08:05:22;5.50;61.30
10089;DHT22;51898;49.864;8.550;2023-04-03T08:08:24;5.50;61.20
10089;DHT22;51898;49.864;8.550;2023-04-03T08:11:25;5.60;60.80
10089;DHT22;51898;49.864;8.550;2023-04-03T08:14:31;5.60;60.40
10089;DHT22;51898;49.864;8.550;2023-04-03T08:17:32;5.60;60.60
10089;DHT22;51898;49.864;8.550;2023-04-03T08:20:34;5.60;59.40
10089;DHT22;51898;49.864;8.550;2023-04-03T08:23:36;5.60;59.80
10089;DHT22;51898;49.864;8.550;2023-04-03T08:26:38;5.60;59.50
10089;DHT22;51898;49.864;8.550;2023-04-03T08:29:40;5.80;60.30
10089;DHT22;51898;49.864;8.550;2023-04-03T08:32:42;5.80;59.20
10089;DHT22;51898;49.864;8.550;2023-04-03T08:35:44;5.90;59.70
10089;DHT22;51898;49.864;8.550;2023-04-03T08:38:46;5.90;59.80
10089;DHT22;51898;49.864;8.550;2023-04-03T08:41:48;6.00;59.30
10089;DHT22;51898;49.864;8.550;2023-04-03T08:44:59;6.00;58.00
10089;DHT22;51898;49.864;8.550;2023-04-03T08:48:11;6.00;58.40
10089;DHT22;51898;49.864;8.550;2023-04-03T08:51:16;6.10;58.10
10089;DHT22;51898;49.864;8.550;2023-04-03T08:54:35;6.20;57.70
10089;DHT22;51898;49.864;8.550;2023-04-03T08:57:42;6.30;58.60
10089;DHT22;51898;49.864;8.550;2023-04-03T09:00:57;6.50;57.60
10089;DHT22;51898;49.864;8.550;2023-04-03T09:04:12;6.50;56.50
10089;DHT22;51898;49.864;8.550;2023-04-03T09:07:25;6.70;57.10
10089;DHT22;51898;49.864;8.550;2023-04-03T09:10:33;7.00;54.80
10089;DHT22;51898;49.864;8.550;2023-04-03T09:21:04;7.20;53.30
10089;DHT22;51898;49.864;8.550;2023-04-03T09:24:12;7.20;51.80
10089;DHT22;51898;49.864;8.550;2023-04-03T09:27:14;7.50;53.60
10089;DHT22;51898;49.864;8.550;2023-04-03T09:30:18;7.70;53.50
10089;DHT22;51898;49.864;8.550;2023-04-03T09:33:21;7.80;52.60
10089;DHT22;51898;49.864;8.550;2023-04-03T09:36:40;7.50;49.90
10089;DHT22;51898;49.864;8.550;2023-04-03T09:39:50;7.00;52.90
10089;DHT22;51898;49.864;8.550;2023-04-03T09:42:54;7.00;53.20
10089;DHT22;51898;49.864;8.550;2023-04-03T09:46:32;7.00;52.80
10089;DHT22;51898;49.864;8.550;2023-04-03T09:49:34;7.20;53.30
10089;DHT22;51898;49.864;8.550;2023-04-03T09:52:36;7.20;52.50
10089;DHT22;51898;49.864;8.550;2023-04-03T09:55:44;7.00;53.30
10089;DHT22;51898;49.864;8.550;2023-04-03T10:02:22;7.10;54.10
10089;DHT22;51898;49.864;8.550;2023-04-03T10:05:36;7.20;54.40
10089;DHT22;51898;49.864;8.550;2023-04-03T10:08:38;7.10;53.10
10089;DHT22;51898;49.864;8.550;2023-04-03T10:15:00;7.10;54.30
10089;DHT22;51898;49.864;8.550;2023-04-03T10:18:10;7.30;54.20
10089;DHT22;51898;49.864;8.550;2023-04-03T10:21:50;7.20;53.10
10089;DHT22;51898;49.864;8.550;2023-04-03T10:28:03;7.30;52.60
10089;DHT22;51898;49.864;8.550;2023-04-03T10:31:25;7.20;51.50
10089;DHT22;51898;49.864;8.550;2023-04-03T10:34:43;7.20;51.80
10089;DHT22;51898;49.864;8.550;2023-04-03T10:38:15;7.40;52.90
10089;DHT22;51898;49.864;8.550;2023-04-03T10:41:56;7.80;52.50
10089;DHT22;51898;49.864;8.550;2023-04-03T10:48:40;7.80;49.30
10089;DHT22;51898;49.864;8.550;2023-04-03T10:51:52;7.70;49.70
10089;DHT22;51898;49.864;8.550;2023-04-03T10:58:21;7.80;50.20
10089;DHT22;51898;49.864;8.550;2023-04-03T11:01:30;7.70;49.00
10089;DHT22;51898;49.864;8.550;2023-04-03T11:04:36;8.00;49.00
10089;DHT22;51898;49.864;8.550;2023-04-03T11:07:42;7.80;48.40
10089;DHT22;51898;49.864;8.550;2023-04-03T11:10:46;7.80;47.70
10089;DHT22;51898;49.864;8.550;2023-04-03T11:14:00;7.80;48.90
10089;DHT22;51898;49.864;8.550;2023-04-03T11:20:30;8.00;50.40
10089;DHT22;51898;49.864;8.550;2023-04-03T11:23:36;8.10;49.30
10089;DHT22;51898;49.864;8.550;2023-04-03T11:26:51;8.30;47.60
10089;DHT22;51898;49.864;8.550;2023-04-03T11:29:54;8.30;47.60
10089;DHT22;51898;49.864;8.550;2023-04-03T11:36:32;8.60;48.40
10089;DHT22;51898;49.864;8.550;2023-04-03T11:39:39;8.60;46.80
10089;DHT22;51898;49.864;8.550;2023-04-03T11:42:48;8.50;45.50
10089;DHT22;51898;49.864;8.550;2023-04-03T11:45:59;8.40;46.10
10089;DHT22;51898;49.864;8.550;2023-04-03T11:49:03;8.60;46.60
10089;DHT22;51898;49.864;8.550;2023-04-03T11:52:10;8.40;47.20
10089;DHT22;51898;49.864;8.550;2023-04-03T11:58:32;8.00;47.30
10089;DHT22;51898;49.864;8.550;2023-04-03T12:01:56;8.20;46.20
10089;DHT22;51898;49.864;8.550;2023-04-03T12:05:28;8.50;45.90
10089;DHT22;51898;49.864;8.550;2023-04-03T12:11:35;9.00;44.40
10089;DHT22;51898;49.864;8.550;2023-04-03T12:14:38;9.20;43.60
10089;DHT22;51898;49.864;8.550;2023-04-03T12:17:39;9.00;44.20
10089;DHT22;51898;49.864;8.550;2023-04-03T12:20:55;9.00;43.40
10089;DHT22;51898;49.864;8.550;2023-04-03T12:24:24;8.70;43.40
10089;DHT22;51898;49.864;8.550;2023-04-03T12:27:27;8.30;44.10
10089;DHT22;51898;49.864;8.550;2023-04-03T12:30:30;8.40;44.30
10089;DHT22;51898;49.864;8.550;2023-04-03T12:34:02;8.60;42.10
10089;DHT22;51898;49.864;8.550;2023-04-03T12:40:37;8.80;41.40
10089;DHT22;51898;49.864;8.550;2023-04-03T12:47:28;9.00;39.30
10089;DHT22;51898;49.864;8.550;2023-04-03T12:50:32;9.00;38.50
10089;DHT22;51898;49.864;8.550;2023-04-03T12:53:37;9.00;38.30
10089;DHT22;51898;49.864;8.550;2023-04-03T12:56:40;8.80;38.90
10089;DHT22;51898;49.864;8.550;2023-04-03T12:59:42;8.90;38.40
10089;DHT22;51898;49.864;8.550;2023-04-03T13:02:48;9.00;39.00
10089;DHT22;51898;49.864;8.550;2023-04-03T13:05:50;9.40;35.50
10089;DHT22;51898;49.864;8.550;2023-04-03T13:08:55;9.30;35.70
10089;DHT22;51898;49.864;8.550;2023-04-03T13:12:02;9.30;35.90
10089;DHT22;51898;49.864;8.550;2023-04-03T13:15:40;9.30;36.60
10089;DHT22;51898;49.864;8.550;2023-04-03T13:18:43;9.20;35.30
10089;DHT22;51898;49.864;8.550;2023-04-03T13:22:02;9.50;34.30
10089;DHT22;51898;49.864;8.550;2023-04-03T13:25:11;9.30;34.90
10089;DHT22;51898;49.864;8.550;2023-04-03T13:28:21;9.50;34.90
10089;DHT22;51898;49.864;8.550;2023-04-03T13:31:27;9.50;33.00
10089;DHT22;51898;49.864;8.550;2023-04-03T13:34:40;9.50;34.90
10089;DHT22;51898;49.864;8.550;2023-04-03T13:37:57;9.80;36.40
10089;DHT22;51898;49.864;8.550;2023-04-03T13:41:03;9.70;35.10
10089;DHT22;51898;49.864;8.550;2023-04-03T13:44:38;9.90;35.20
10089;DHT22;51898;49.864;8.550;2023-04-03T13:47:43;9.90;36.20
10089;DHT22;51898;49.864;8.550;2023-04-03T13:51:01;9.70;36.80
10089;DHT22;51898;49.864;8.550;2023-04-03T13:54:21;9.70;38.40
10089;DHT22;51898;49.864;8.550;2023-04-03T13:57:24;9.50;39.40
10089;DHT22;51898;49.864;8.550;2023-04-03T14:00:35;9.80;40.10
10089;DHT22;51898;49.864;8.550;2023-04-03T14:03:44;9.90;38.60
10089;DHT22;51898;49.864;8.550;2023-04-03T14:06:46;9.60;38.40
10089;DHT22;51898;49.864;8.550;2023-04-03T14:09:49;9.50;36.90
10089;DHT22;51898;49.864;8.550;2023-04-03T14:12:50;9.40;37.40
10089;DHT22;51898;49.864;8.550;2023-04-03T14:15:52;9.40;38.50
10089;DHT22;51898;49.864;8.550;2023-04-03T14:18:56;9.60;39.50
10089;DHT22;51898;49.864;8.550;2023-04-03T14:22:00;9.50;39.40
10089;DHT22;51898;49.864;8.550;2023-04-03T14:25:02;9.70;39.40
10089;DHT22;51898;49.864;8.550;2023-04-03T14:28:18;9.70;39.50
10089;DHT22;51898;49.864;8.550;2023-04-03T14:31:21;9.60;39.90
10089;DHT22;51898;49.864;8.550;2023-04-03T14:34:23;9.10;40.40
10089;DHT22;51898;49.864;8.550;2023-04-03T14:37:28;8.90;40.40
10089;DHT22;51898;49.864;8.550;2023-04-03T14:40:30;8.90;40.90
10089;DHT22;51898;49.864;8.550;2023-04-03T14:43:32;9.20;40.70
10089;DHT22;51898;49.864;8.550;2023-04-03T14:46:39;9.40;39.00
10089;DHT22;51898;49.864;8.550;2023-04-03T14:49:56;9.60;38.70
10089;DHT22;51898;49.864;8.550;2023-04-03T14:52:58;9.50;39.10
10089;DHT22;51898;49.864;8.550;2023-04-03T14:56:00;9.40;40.10
10089;DHT22;51898;49.864;8.550;2023-04-03T14:59:04;9.60;39.70
10089;DHT22;51898;49.864;8.550;2023-04-03T15:02:24;9.40;39.80
10089;DHT22;51898;49.864;8.550;2023-04-03T15:05:26;9.50;39.80
10089;DHT22;51898;49.864;8.550;2023-04-03T15:08:28;9.40;39.80
10089;DHT22;51898;49.864;8.550;2023-04-03T15:11:33;9.50;40.30
10089;DHT22;51898;49.864;8.550;2023-04-03T15:14:35;9.30;39.10
10089;DHT22;51898;49.864;8.550;2023-04-03T15:17:52;9.40;40.20
10089;DHT22;51898;49.864;8.550;2023-04-03T15:20:59;9.20;39.50
10089;DHT22;51898;49.864;8.550;2023-04-03T15:24:01;9.00;39.90
10089;DHT22;51898;49.864;8.550;2023-04-03T15:27:03;9.10;40.40
10089;DHT22;51898;49.864;8.550;2023-04-03T15:30:06;9.10;40.70
10089;DHT22;51898;49.864;8.550;2023-04-03T15:33:08;9.20;41.00
10089;DHT22;51898;49.864;8.550;2023-04-03T15:36:10;9.00;40.70
10089;DHT22;51898;49.864;8.550;2023-04-03T15:39:29;8.70;41.20
10089;DHT22;51898;49.864;8.550;2023-04-03T15:42:31;8.90;41.50
10089;DHT22;51898;49.864;8.550;2023-04-03T15:45:34;9.00;40.80
10089;DHT22;51898;49.864;8.550;2023-04-03T15:48:37;9.20;40.90
10089;DHT22;51898;49.864;8.550;2023-04-03T15:51:38;9.20;39.60
10089;DHT22;51898;49.864;8.550;2023-04-03T15:54:40;8.90;41.10
10089;DHT22;51898;49.864;8.550;2023-04-03T15:57:42;8.90;41.60
10089;DHT22;51898;49.864;8.550;2023-04-03T16:00:44;8.90;41.20
10089;DHT22;51898;49.864;8.550;2023-04-03T16:03:46;9.10;41.50
10089;DHT22;51898;49.864;8.550;2023-04-03T16:06:49;8.90;40.80
10089;DHT22;51898;49.864;8.550;2023-04-03T16:09:51;9.00;39.90
10089;DHT22;51898;49.864;8.550;2023-04-03T16:12:53;9.00;39.50
10089;DHT22;51898;49.864;8.550;2023-04-03T16:15:55;9.00;39.60
10089;DHT22;51898;49.864;8.550;2023-04-03T16:18:56;9.20;40.00
10089;DHT22;51898;49.864;8.550;2023-04-03T16:21:58;9.30;40.30
10089;DHT22;51898;49.864;8.550;2023-04-03T16:25:00;9.30;40.30
10089;DHT22;51898;49.864;8.550;2023-04-03T16:28:02;9.20;40.90
10089;DHT22;51898;49.864;8.550;2023-04-03T16:31:05;9.20;41.00
10089;DHT22;51898;49.864;8.550;2023-04-03T16:34:07;9.20;40.80
10089;DHT22;51898;49.864;8.550;2023-04-03T16:37:09;9.30;40.80
10089;DHT22;51898;49.864;8.550;2023-04-03T16:40:11;9.60;39.60
10089;DHT22;51898;49.864;8.550;2023-04-03T16:43:14;10.20;38.80
10089;DHT22;51898;49.864;8.550;2023-04-03T16:46:16;10.70;37.50
10089;DHT22;51898;49.864;8.550;2023-04-03T16:49:17;10.80;37.60
10089;DHT22;51898;49.864;8.550;2023-04-03T16:52:19;10.90;37.40
10089;DHT22;51898;49.864;8.550;2023-04-03T16:55:21;11.10;36.80
10089;DHT22;51898;49.864;8.550;2023-04-03T16:58:23;11.30;37.20
10089;DHT22;51898;49.864;8.550;2023-04-03T17:01:25;12.00;36.10
10089;DHT22;51898;49.864;8.550;2023-04-03T17:04:26;12.10;35.20
10089;DHT22;51898;49.864;8.550;2023-04-03T17:07:28;11.30;36.40
10089;DHT22;51898;49.864;8.550;2023-04-03T17:10:30;11.40;36.40
10089;DHT22;51898;49.864;8.550;2023-04-03T17:13:31;11.40;37.50
10089;DHT22;51898;49.864;8.550;2023-04-03T17:16:37;11.40;37.80
10089;DHT22;51898;49.864;8.550;2023-04-03T17:19:39;11.30;36.80
10089;DHT22;51898;49.864;8.550;2023-04-03T17:22:41;10.90;37.60
10089;DHT22;51898;49.864;8.550;2023-04-03T17:25:43;10.10;38.80
10089;DHT22;51898;49.864;8.550;2023-04-03T17:28:45;9.90;38.40
10089;DHT22;51898;49.864;8.550;2023-04-03T17:31:47;9.60;39.40
10089;DHT22;51898;49.864;8.550;2023-04-03T17:34:49;9.40;39.50
10089;DHT22;51898;49.864;8.550;2023-04-03T17:37:50;9.00;40.40
10089;DHT22;51898;49.864;8.550;2023-04-03T17:40:57;8.90;40.50
10089;DHT22;51898;49.864;8.550;2023-04-03T17:43:59;8.70;40.90
10089;DHT22;51898;49.864;8.550;2023-04-03T17:47:01;8.30;42.00
10089;DHT22;51898;49.864;8.550;2023-04-03T17:50:03;7.60;43.50
10089;DHT22;51898;49.864;8.550;2023-04-03T17:53:05;7.20;44.70
10089;DHT22;51898;49.864;8.550;2023-04-03T17:56:09;6.90;45.10
10089;DHT22;51898;49.864;8.550;2023-04-03T17:59:11;6.70;46.60
10089;DHT22;51898;49.864;8.550;2023-04-03T18:02:13;6.50;46.10
10089;DHT22;51898;49.864;8.550;2023-04-03T18:05:16;6.40;46.60
10089;DHT22;51898;49.864;8.550;2023-04-03T18:08:17;6.20;46.30
10089;DHT22;51898;49.864;8.550;2023-04-03T18:11:20;6.10;46.30
10089;DHT22;51898;49.864;8.550;2023-04-03T18:14:24;6.00;47.10
10089;DHT22;51898;49.864;8.550;2023-04-03T18:17:27;5.90;46.70
10089;DHT22;51898;49.864;8.550;2023-04-03T18:20:29;5.80;46.50
10089;DHT22;51898;49.864;8.550;2023-04-03T18:23:32;5.70;46.80
10089;DHT22;51898;49.864;8.550;2023-04-03T18:26:34;5.60;47.20
10089;DHT22;51898;49.864;8.550;2023-04-03T18:29:37;5.50;47.70
10089;DHT22;51898;49.864;8.550;2023-04-03T18:32:40;5.50;47.90
10089;DHT22;51898;49.864;8.550;2023-04-03T18:35:41;5.40;48.40
10089;DHT22;51898;49.864;8.550;2023-04-03T18:38:43;5.30;48.60
10089;DHT22;51898;49.864;8.550;2023-04-03T18:41:46;5.20;49.10
10089;DHT22;51898;49.864;8.550;2023-04-03T18:44:53;5.20;49.10
10089;DHT22;51898;49.864;8.550;2023-04-03T18:47:55;5.10;49.30
10089;DHT22;51898;49.864;8.550;2023-04-03T18:50:57;5.00;49.50
10089;DHT22;51898;49.864;8.550;2023-04-03T18:53:59;5.00;49.80
10089;DHT22;51898;49.864;8.550;2023-04-03T18:57:03;4.90;49.60
10089;DHT22;51898;49.864;8.550;2023-04-03T19:00:06;4.90;49.60
10089;DHT22;51898;49.864;8.550;2023-04-03T19:03:09;4.80;49.70
10089;DHT22;51898;49.864;8.550;2023-04-03T19:06:13;4.80;50.00
10089;DHT22;51898;49.864;8.550;2023-04-03T19:09:15;4.70;50.20
10089;DHT22;51898;49.864;8.550;2023-04-03T19:12:16;4.70;50.60
10089;DHT22;51898;49.864;8.550;2023-04-03T19:15:20;4.60;50.60
10089;DHT22;51898;49.864;8.550;2023-04-03T19:18:22;4.50;51.00
10089;DHT22;51898;49.864;8.550;2023-04-03T19:21:24;4.50;50.70
10089;DHT22;51898;49.864;8.550;2023-04-03T19:24:25;4.50;51.00
10089;DHT22;51898;49.864;8.550;2023-04-03T19:27:27;4.40;51.30
10089;DHT22;51898;49.864;8.550;2023-04-03T19:30:29;4.40;51.40
10089;DHT22;51898;49.864;8.550;2023-04-03T19:33:32;4.30;51.70
10089;DHT22;51898;49.864;8.550;2023-04-03T19:36:34;4.30;51.90
10089;DHT22;51898;49.864;8.550;2023-04-03T19:39:37;4.20;51.90
10089;DHT22;51898;49.864;8.550;2023-04-03T19:42:39;4.10;52.20
10089;DHT22;51898;49.864;8.550;2023-04-03T19:45:43;4.10;52.20
10089;DHT22;51898;49.864;8.550;2023-04-03T19:48:46;4.00;52.10
10089;DHT22;51898;49.864;8.550;2023-04-03T19:51:48;4.00;52.40
10089;DHT22;51898;49.864;8.550;2023-04-03T19:54:50;3.90;52.80
10089;DHT22;51898;49.864;8.550;2023-04-03T19:57:53;3.90;52.60
10089;DHT22;51898;49.864;8.550;2023-04-03T20:00:56;3.90;52.90
10089;DHT22;51898;49.864;8.550;2023-04-03T20:03:57;3.80;52.60
10089;DHT22;51898;49.864;8.550;2023-04-03T20:06:59;3.80;52.80
10089;DHT22;51898;49.864;8.550;2023-04-03T20:10:03;3.80;52.90
10089;DHT22;51898;49.864;8.550;2023-04-03T20:13:05;3.70;53.20
10089;DHT22;51898;49.864;8.550;2023-04-03T20:16:10;3.70;53.60
10089;DHT22;51898;49.864;8.550;2023-04-03T20:19:12;3.60;53.80
10089;DHT22;51898;49.864;8.550;2023-04-03T20:22:14;3.60;54.20
10089;DHT22;51898;49.864;8.550;2023-04-03T20:25:16;3.50;54.40
10089;DHT22;51898;49.864;8.550;2023-04-03T20:28:37;3.40;54.70
10089;DHT22;51898;49.864;8.550;2023-04-03T20:31:40;3.40;54.90
10089;DHT22;51898;49.864;8.550;2023-04-03T20:34:42;3.30;55.20
10089;DHT22;51898;49.864;8.550;2023-04-03T20:37:58;3.30;55.10